Time;durP1;ratioP1;P1;durP2;ratioP2;P2;SDS_P1;SDS_P2;PMS_P1;PMS_P2;Temp;Humidity;BMP_temperature;BMP_pressure;BME280_temperature;BME280_humidity;BME280_pressure;Samples;Min_cycle;Max_cycle;Signal;HPM_P1;HPM_P2
2023/05/02 00:01:06;;;;;;;36.33;17.33;;;;;;;11.11;100.00;101727.44;5054235;28;20026;-74
2023/05/02 00:03:31;;;;;;;30.30;16.55;;;;;;;11.10;100.00;101736.47;5071702;28;20103;-74
2023/05/02 00:05:58;;;;;;;32.25;17.50;;;;;;;11.13;100.00;101741.44;5071632;28;20033;-74
2023/05/02 00:08:23;;;;;;;30.75;17.13;;;;;;;11.10;100.00;101741.00;5071983;28;20032;-73
2023/05/02 00:10:49;;;;;;;34.85;18.27;;;;;;;11.08;100.00;101746.56;5071104;28;20055;-74
2023/05/02 00:13:14;;;;;;;38.60;18.02;;;;;;;11.05;100.00;101744.28;5054106;28;20036;-74
2023/05/02 00:15:39;;;;;;;38.27;18.23;;;;;;;11.06;100.00;101750.47;5071875;28;20025;-73
2023/05/02 00:21:28;;;;;;;37.60;18.13;;;;;;;11.11;100.00;101754.19;5071980;28;20773;-74
2023/05/02 00:23:59;;;;;;;37.70;17.98;;;;;;;11.13;100.00;101751.31;5071067;28;20037;-75
2023/05/02 00:26:24;;;;;;;33.92;17.38;;;;;;;11.11;100.00;101762.22;5071745;28;20486;-74
2023/05/02 00:28:49;;;;;;;30.77;17.38;;;;;;;11.13;100.00;101767.38;5070886;28;20040;-73
2023/05/02 00:31:15;;;;;;;37.20;18.17;;;;;;;10.97;100.00;101765.81;5071799;28;20029;-74
2023/05/02 00:33:41;;;;;;;33.15;17.98;;;;;;;10.99;100.00;101760.28;5071724;28;20032;-74
2023/05/02 00:36:16;;;;;;;36.65;17.02;;;;;;;11.01;100.00;101763.59;5053279;28;20068;-74
2023/05/02 00:38:41;;;;;;;36.33;17.85;;;;;;;11.05;100.00;101764.84;5071729;28;20040;-74
2023/05/02 00:44:28;;;;;;;28.67;15.90;;;;;;;10.94;100.00;101776.06;5071580;28;20321;-74
2023/05/02 00:46:55;;;;;;;28.23;14.27;;;;;;;10.81;100.00;101769.59;5071566;28;20251;-74
2023/05/02 00:49:20;;;;;;;28.40;14.23;;;;;;;10.73;100.00;101771.59;5070757;28;20055;-73
2023/05/02 00:51:45;;;;;;;26.85;13.38;;;;;;;10.61;100.00;101773.94;5073206;28;20024;-74
2023/05/02 00:54:12;;;;;;;26.95;14.35;;;;;;;10.52;100.00;101785.78;5074301;28;20118;-74
2023/05/02 00:56:37;;;;;;;27.40;13.77;;;;;;;10.42;100.00;101783.44;5074937;28;20028;-74
2023/05/02 00:59:04;;;;;;;28.08;12.95;;;;;;;10.39;100.00;101789.13;5056891;28;20039;-75
2023/05/02 01:01:52;;;;;;;27.73;14.02;;;;;;;10.42;100.00;101782.59;5074216;28;20457;-74
2023/05/02 01:07:44;;;;;;;24.85;14.05;;;;;;;10.29;100.00;101774.44;5075241;28;20059;-75
2023/05/02 01:10:36;;;;;;;25.67;13.52;;;;;;;10.27;100.00;101776.47;5056690;28;20078;-74
2023/05/02 01:13:04;;;;;;;24.33;13.18;;;;;;;10.16;100.00;101783.94;5060745;28;20056;-74
2023/05/02 01:15:31;;;;;;;26.10;13.45;;;;;;;10.11;100.00;101782.81;5074676;28;20074;-74
2023/05/02 01:17:59;;;;;;;22.40;11.45;;;;;;;10.14;100.00;101780.63;5074675;28;20091;-74
2023/05/02 01:20:27;;;;;;;20.05;11.07;;;;;;;10.10;100.00;101773.97;5056179;28;20044;-75
2023/05/02 01:22:56;;;;;;;17.85;8.55;;;;;;;10.08;100.00;101772.50;5074766;28;20028;-75
2023/05/02 01:25:30;;;;;;;17.02;8.93;;;;;;;10.03;100.00;101782.94;5073696;28;20055;-74
2023/05/02 01:28:15;;;;;;;16.17;9.50;;;;;;;10.02;100.00;101774.09;5056480;28;20087;-75
2023/05/02 01:30:43;;;;;;;17.80;9.55;;;;;;;9.97;100.00;101765.81;5055875;28;20671;-74
2023/05/02 01:33:12;;;;;;;19.05;10.73;;;;;;;9.97;100.00;101775.66;5074405;28;20037;-75
2023/05/02 01:35:39;;;;;;;18.70;10.07;;;;;;;9.86;100.00;101775.16;5074422;28;20090;-75
2023/05/02 01:38:05;;;;;;;17.98;9.85;;;;;;;9.86;100.00;101782.31;5073478;28;20036;-74
2023/05/02 01:40:33;;;;;;;19.67;10.98;;;;;;;9.85;100.00;101783.34;5056378;28;20020;-74
2023/05/02 01:46:21;;;;;;;19.30;9.73;;;;;;;9.87;100.00;101786.66;5074647;28;20059;-73
2023/05/02 01:48:50;;;;;;;19.08;10.82;;;;;;;9.94;100.00;101791.06;5074172;28;20033;-73
2023/05/02 01:51:18;;;;;;;19.33;10.75;;;;;;;9.93;100.00;101792.06;5055604;28;20044;-73
2023/05/02 01:53:46;;;;;;;18.60;10.50;;;;;;;9.91;100.00;101790.59;5056059;28;20024;-74
2023/05/02 01:56:15;;;;;;;20.33;10.80;;;;;;;9.96;100.00;101790.88;5073225;28;20048;-74
2023/05/02 02:02:04;;;;;;;17.73;9.73;;;;;;;10.09;100.00;101806.22;5073058;28;20172;-75
2023/05/02 02:04:31;;;;;;;23.52;10.88;;;;;;;10.05;100.00;101802.28;5055956;28;20644;-75
2023/05/02 02:07:01;;;;;;;20.25;10.65;;;;;;;10.08;100.00;101807.25;5073837;28;20036;-75
2023/05/02 02:09:26;;;;;;;18.27;10.95;;;;;;;10.10;100.00;101800.69;5055264;28;20063;-75
2023/05/02 02:12:02;;;;;;;17.35;9.68;;;;;;;10.11;100.00;101810.38;5055960;28;20109;-74
2023/05/02 02:14:33;;;;;;;25.63;11.32;;;;;;;10.16;100.00;101816.00;5073132;28;20048;-74
2023/05/02 02:17:01;;;;;;;22.83;12.38;;;;;;;10.17;100.00;101808.81;5055998;28;20512;-74
2023/05/02 02:19:29;;;;;;;21.70;12.13;;;;;;;10.23;100.00;101816.94;5073667;28;20037;-74
2023/05/02 02:21:57;;;;;;;24.23;12.07;;;;;;;10.22;100.00;101827.81;5072881;28;20079;-75
2023/05/02 02:24:24;;;;;;;23.90;11.98;;;;;;;10.21;100.00;101826.16;5055719;28;20029;-74
2023/05/02 02:26:50;;;;;;;23.38;12.82;;;;;;;10.22;100.00;101831.31;5072782;28;20051;-75
2023/05/02 02:29:15;;;;;;;23.17;12.45;;;;;;;10.24;100.00;101831.13;5073708;28;20033;-74
2023/05/02 02:31:40;;;;;;;24.50;11.95;;;;;;;10.20;100.00;101824.47;5073661;28;20032;-74
2023/05/02 02:34:06;;;;;;;25.60;13.32;;;;;;;10.18;100.00;101832.69;5072599;28;20039;-73
2023/05/02 02:36:52;;;;;;;22.95;12.60;;;;;;;10.13;100.00;101829.75;5055673;28;20115;-74
2023/05/02 02:39:24;;;;;;;24.70;13.43;;;;;;;10.13;100.00;101835.09;5072499;28;20044;-74
2023/05/02 02:42:11;;;;;;;22.70;13.60;;;;;;;10.14;100.00;101834.06;5055538;28;20377;-74
2023/05/02 02:45:00;;;;;;;25.10;13.27;;;;;;;10.14;100.00;101838.59;5055345;28;20044;-73
2023/05/02 02:50:58;;;;;;;22.98;12.13;;;;;;;10.19;100.00;101842.34;5073272;28;20171;-74
2023/05/02 02:53:33;;;;;;;22.50;13.10;;;;;;;10.18;100.00;101827.34;5066667;28;20127;-74
2023/05/02 02:56:05;;;;;;;27.38;15.55;;;;;;;10.22;100.00;101831.31;5073282;28;20020;-74
2023/05/02 02:58:56;;;;;;;28.63;16.00;;;;;;;10.14;100.00;101844.75;5072533;28;20051;-73
2023/05/02 03:01:25;;;;;;;26.40;16.10;;;;;;;10.12;100.00;101841.44;5073120;28;20099;-74
2023/05/02 03:03:53;;;;;;;27.50;15.95;;;;;;;10.14;100.00;101847.44;5071786;28;20563;-74
2023/05/02 03:06:19;;;;;;;31.05;17.05;;;;;;;10.17;100.00;101856.91;5072706;28;20029;-74
2023/05/02 03:08:44;;;;;;;30.05;16.50;;;;;;;10.14;100.00;101863.47;5054986;28;20043;-73
2023/05/02 03:11:10;;;;;;;24.50;14.93;;;;;;;10.15;100.00;101853.59;5072250;28;20040;-73
2023/05/02 03:13:36;;;;;;;24.98;15.13;;;;;;;10.11;100.00;101863.81;5054197;28;20029;-74
2023/05/02 03:16:22;;;;;;;23.17;14.77;;;;;;;10.14;100.00;101867.97;5053886;28;20444;-73
2023/05/02 03:22:09;;;;;;;26.13;15.13;;;;;;;10.21;100.00;101872.44;5072943;28;20039;-74
2023/05/02 03:24:35;;;;;;;26.05;14.60;;;;;;;10.19;100.00;101869.09;5072800;28;20036;-74
2023/05/02 03:27:00;;;;;;;22.40;14.67;;;;;;;10.19;100.00;101871.75;5072588;28;20448;-74
2023/05/02 03:29:25;;;;;;;24.77;14.40;;;;;;;10.21;100.00;101877.78;5054074;28;20396;-74
2023/05/02 03:31:51;;;;;;;21.92;14.23;;;;;;;10.21;100.00;101887.63;5072610;28;20270;-74
2023/05/02 03:34:17;;;;;;;23.00;13.60;;;;;;;10.14;100.00;101884.84;5053957;28;20385;-74
2023/05/02 03:36:43;;;;;;;21.13;13.90;;;;;;;10.05;100.00;101890.44;5072351;28;20541;-74
2023/05/02 03:39:08;;;;;;;25.13;13.52;;;;;;;9.95;100.00;101882.72;5054467;28;20124;-74
2023/05/02 03:41:34;;;;;;;23.80;14.37;;;;;;;9.89;100.00;101884.28;5054014;28;20068;-74
2023/05/02 03:43:59;;;;;;;25.35;14.02;;;;;;;9.86;100.00;101891.84;5072476;28;20297;-74
2023/05/02 03:46:24;;;;;;;20.63;12.93;;;;;;;9.78;100.00;101883.91;5072494;28;20412;-74
2023/05/02 03:48:49;;;;;;;23.88;13.10;;;;;;;9.82;100.00;101894.03;5071605;28;20314;-75
2023/05/02 03:51:15;;;;;;;21.80;12.68;;;;;;;9.78;100.00;101889.25;5072304;28;20056;-74
2023/05/02 03:53:40;;;;;;;18.35;11.07;;;;;;;9.84;100.00;101893.88;5071520;28;20048;-74
2023/05/02 03:56:07;;;;;;;20.35;9.90;;;;;;;9.86;100.00;101902.53;5072285;28;20036;-74
2023/05/02 03:58:33;;;;;;;18.60;9.93;;;;;;;9.91;100.00;101917.00;5070963;28;20032;-74
2023/05/02 04:00:58;;;;;;;17.95;9.93;;;;;;;9.93;100.00;101916.81;5071456;28;20127;-75
2023/05/02 04:03:23;;;;;;;20.42;8.30;;;;;;;10.05;100.00;101919.84;5072319;28;20111;-75
2023/05/02 04:05:50;;;;;;;15.30;6.95;;;;;;;9.97;100.00;101911.94;5071493;28;20400;-74
2023/05/02 04:08:16;;;;;;;12.38;6.22;;;;;;;9.98;100.00;101911.75;5054243;28;20024;-74
2023/05/02 04:14:03;;;;;;;19.60;6.43;;;;;;;9.86;100.00;101927.41;5072232;28;20035;-75
2023/05/02 04:16:28;;;;;;;14.35;6.13;;;;;;;9.74;100.00;101930.69;5072023;28;20028;-74
2023/05/02 04:18:53;;;;;;;10.07;4.45;;;;;;;9.67;100.00;101935.94;5071163;28;20079;-74
2023/05/02 04:21:19;;;;;;;7.87;3.60;;;;;;;9.66;100.00;101939.63;5053809;28;20028;-73
2023/05/02 04:23:44;;;;;;;13.20;3.60;;;;;;;9.61;100.00;101944.66;5053142;28;20315;-74
2023/05/02 04:26:09;;;;;;;5.15;2.85;;;;;;;9.50;100.00;101948.56;5053571;28;20052;-74
2023/05/02 04:28:35;;;;;;;7.05;2.83;;;;;;;9.49;100.00;101962.09;5071574;28;20044;-74
2023/05/02 04:31:02;;;;;;;7.45;2.75;;;;;;;9.38;100.00;101957.22;5070797;28;20095;-73
2023/05/02 04:33:27;;;;;;;8.77;2.75;;;;;;;9.37;100.00;101967.06;5071633;28;20099;-73
2023/05/02 04:35:52;;;;;;;6.60;2.60;;;;;;;9.32;100.00;101961.41;5071107;28;20127;-73
2023/05/02 04:38:18;;;;;;;6.33;2.40;;;;;;;9.38;100.00;101959.88;5053660;28;20432;-75
2023/05/02 04:40:43;;;;;;;5.00;2.67;;;;;;;9.23;100.00;101981.16;5071687;28;20281;-75
2023/05/02 04:43:08;;;;;;;5.25;2.47;;;;;;;9.21;100.00;101983.16;5070873;28;20052;-73
2023/05/02 04:45:35;;;;;;;3.03;2.42;;;;;;;9.16;100.00;101991.69;5071574;28;20036;-75
2023/05/02 04:48:01;;;;;;;10.07;3.10;;;;;;;9.06;100.00;101991.13;5052943;28;20025;-74
2023/05/02 04:50:27;;;;;;;5.78;2.70;;;;;;;9.01;100.00;101985.47;5071189;28;20448;-74
2023/05/02 04:52:52;;;;;;;4.05;2.25;;;;;;;9.06;100.00;102006.28;5053451;28;20568;-74
2023/05/02 04:55:18;;;;;;;8.60;3.03;;;;;;;9.10;100.00;101994.25;5070618;28;20095;-75
2023/05/02 04:57:43;;;;;;;7.38;2.90;;;;;;;9.24;100.00;101998.81;5071308;28;20483;-75
2023/05/02 05:03:32;;;;;;;7.72;2.88;;;;;;;9.32;100.00;102009.47;5071467;28;20265;-74
2023/05/02 05:05:57;;;;;;;7.15;3.08;;;;;;;9.32;100.00;102007.63;5053316;28;20453;-74
2023/05/02 05:08:23;;;;;;;5.55;2.78;;;;;;;9.37;100.00;102015.09;5070366;28;20064;-75
2023/05/02 05:10:49;;;;;;;4.85;2.70;;;;;;;9.39;100.00;102014.91;5053237;28;20607;-75
2023/05/02 05:16:36;;;;;;;6.45;2.80;;;;;;;9.59;100.00;102034.81;5071422;28;20095;-74
2023/05/02 05:19:01;;;;;;;6.05;2.65;;;;;;;9.70;100.00;102034.38;5070476;28;20053;-74
2023/05/02 05:21:27;;;;;;;4.30;2.42;;;;;;;9.79;100.00;102032.47;5071124;28;20062;-74
2023/05/02 05:23:52;;;;;;;7.78;3.53;;;;;;;9.85;100.00;102042.47;5053073;28;20090;-75
2023/05/02 05:26:18;;;;;;;4.95;2.30;;;;;;;9.83;100.00;102039.97;5070349;28;20044;-74
2023/05/02 05:28:43;;;;;;;6.70;2.25;;;;;;;9.81;100.00;102049.97;5052914;28;20035;-75
2023/05/02 05:34:30;;;;;;;5.82;2.50;;;;;;;10.02;100.00;102059.16;5071353;28;20035;-74
2023/05/02 05:36:55;;;;;;;5.60;2.20;;;;;;;10.08;100.00;102055.78;5071259;28;20036;-74
2023/05/02 05:39:21;;;;;;;4.95;2.92;;;;;;;10.32;100.00;102057.41;5073533;28;20041;-75
2023/05/02 05:41:46;;;;;;;8.00;2.75;;;;;;;10.99;100.00;102071.56;5074400;28;20495;-75
2023/05/02 05:44:12;;;;;;;6.43;2.13;;;;;;;11.85;100.00;102072.53;5073635;28;20048;-74
2023/05/02 05:49:59;;;;;;;4.10;1.98;;;;;;;13.17;98.90;102062.69;5074353;28;20047;-74
2023/05/02 05:52:25;;;;;;;5.57;2.25;;;;;;;13.62;92.15;102068.41;5056332;28;20111;-75
2023/05/02 05:54:53;;;;;;;9.85;2.95;;;;;;;14.01;90.98;102067.63;5056476;28;20041;-74
2023/05/02 05:57:18;;;;;;;4.68;2.20;;;;;;;14.42;87.07;102082.69;5072176;28;20515;-74
2023/05/02 05:59:43;;;;;;;6.70;2.22;;;;;;;15.01;84.70;102079.06;5056141;28;20017;-74
2023/05/02 06:02:09;;;;;;;8.67;2.67;;;;;;;15.48;79.88;102080.53;5073625;28;20058;-74
2023/05/02 06:07:57;;;;;;;10.30;2.65;;;;;;;16.03;75.99;102094.31;5074210;28;20048;-75
2023/05/02 06:10:22;;;;;;;8.05;3.03;;;;;;;16.12;74.36;102101.06;5073105;28;20041;-74
2023/05/02 06:12:48;;;;;;;6.20;2.10;;;;;;;16.34;73.61;102096.13;5073881;28;20053;-74
2023/05/02 06:15:13;;;;;;;7.57;2.30;;;;;;;16.78;73.67;102105.91;5073002;28;20052;-74
2023/05/02 06:17:38;;;;;;;8.77;2.50;;;;;;;17.31;69.76;102113.38;5073664;28;20288;-74
2023/05/02 06:20:05;;;;;;;6.82;2.70;;;;;;;17.49;67.56;102121.47;5073806;28;20083;-74
2023/05/02 06:22:31;;;;;;;7.38;2.20;;;;;;;17.66;67.37;102105.44;5055565;28;20053;-75
2023/05/02 06:24:56;;;;;;;9.80;2.58;;;;;;;17.86;63.95;102118.69;5073739;28;20032;-75
2023/05/02 06:27:21;;;;;;;6.40;2.33;;;;;;;17.54;65.53;102124.31;5055049;28;20097;-75
2023/05/02 06:33:08;;;;;;;7.93;2.78;;;;;;;16.91;68.25;102138.19;5073888;28;20431;-74
2023/05/02 06:35:34;;;;;;;10.60;3.27;;;;;;;16.28;70.03;102143.72;5055660;28;20033;-74
2023/05/02 06:37:59;;;;;;;7.25;2.90;;;;;;;15.37;74.15;102148.59;5055288;28;20298;-73
2023/05/02 06:40:24;;;;;;;14.80;2.83;;;;;;;15.00;76.36;102144.75;5072597;28;20048;-74
2023/05/02 06:42:49;;;;;;;7.07;2.90;;;;;;;15.04;74.49;102162.19;5073405;28;20322;-74
2023/05/02 06:45:15;;;;;;;10.85;3.13;;;;;;;14.66;78.01;102162.03;5073315;28;20293;-74
2023/05/02 06:47:40;;;;;;;6.45;2.80;;;;;;;14.46;79.15;102162.88;5055182;28;20044;-74
2023/05/02 06:50:06;;;;;;;13.57;2.90;;;;;;;14.25;79.59;102168.41;5073351;28;20044;-74
2023/05/02 06:52:31;;;;;;;7.22;2.67;;;;;;;14.16;80.07;102165.06;5071339;28;20037;-74
2023/05/02 06:54:57;;;;;;;9.70;3.58;;;;;;;14.24;79.64;102169.44;5073144;28;20039;-74
2023/05/02 06:57:23;;;;;;;6.15;2.80;;;;;;;14.87;79.94;102180.66;5055196;28;20021;-75
2023/05/02 06:59:49;;;;;;;8.23;3.10;;;;;;;15.17;75.85;102179.13;5072154;28;20118;-74
2023/05/02 07:05:36;;;;;;;10.77;3.38;;;;;;;15.19;76.51;102179.75;5073358;28;20458;-74
2023/05/02 07:08:01;;;;;;;8.17;2.60;;;;;;;15.22;74.61;102178.50;5055111;28;20055;-74
2023/05/02 07:10:27;;;;;;;9.88;2.75;;;;;;;14.93;75.94;102187.88;5072219;28;20362;-75
2023/05/02 07:16:14;;;;;;;5.57;2.88;;;;;;;14.19;79.49;102191.59;5072826;28;20051;-75
2023/05/02 07:18:39;;;;;;;13.68;3.20;;;;;;;14.14;81.17;102204.81;5054175;28;20036;-73
2023/05/02 07:21:04;;;;;;;8.07;3.10;;;;;;;14.11;82.09;102193.63;5054688;28;20128;-74
2023/05/02 07:23:30;;;;;;;10.43;3.20;;;;;;;14.44;80.03;102209.84;5071953;28;20119;-74
2023/05/02 07:29:17;;;;;;;11.30;3.42;;;;;;;14.47;79.24;102210.28;5073078;28;20435;-74
2023/05/02 07:31:42;;;;;;;9.45;3.53;;;;;;;14.35;79.09;102205.66;5072684;28;20103;-74
2023/05/02 07:34:08;;;;;;;14.80;3.40;;;;;;;14.56;80.23;102214.41;5054644;28;20107;-75
2023/05/02 07:36:33;;;;;;;9.13;2.90;;;;;;;15.92;75.44;102219.94;5071882;28;20647;-74
2023/05/02 07:38:58;;;;;;;10.32;3.75;;;;;;;16.39;71.86;102218.59;5072522;28;20340;-74
2023/05/02 07:41:23;;;;;;;11.27;3.83;;;;;;;15.76;71.95;102218.56;5071792;28;20041;-74
2023/05/02 07:43:49;;;;;;;9.80;3.63;;;;;;;15.22;73.92;102221.59;5072713;28;20287;-73
2023/05/02 07:46:14;;;;;;;9.95;3.92;;;;;;;14.73;73.98;102235.53;5072372;28;20642;-73
2023/05/02 07:48:41;;;;;;;14.00;3.95;;;;;;;14.50;74.93;102239.47;5053645;28;20037;-74
2023/05/02 07:51:08;;;;;;;12.40;4.15;;;;;;;14.05;78.16;102232.94;5072332;28;20035;-74
2023/05/02 07:53:33;;;;;;;9.00;3.53;;;;;;;13.68;75.09;102236.94;5071657;28;20044;-75
2023/05/02 07:55:58;;;;;;;10.80;4.00;;;;;;;13.44;77.36;102250.88;5054378;28;20894;-74
2023/05/02 07:58:24;;;;;;;10.27;3.40;;;;;;;13.20;78.09;102250.31;5072193;28;20032;-74
2023/05/02 08:00:49;;;;;;;15.80;4.03;;;;;;;13.25;78.78;102245.16;5070861;28;20341;-75
2023/05/02 08:03:14;;;;;;;9.25;3.40;;;;;;;13.14;79.83;102248.38;5072171;28;20032;-75
2023/05/02 08:05:40;;;;;;;8.20;3.13;;;;;;;13.18;78.88;102246.16;5071748;28;20028;-75
2023/05/02 08:08:06;;;;;;;7.22;3.70;;;;;;;13.22;80.32;102252.78;5071621;28;20111;-74
2023/05/02 08:13:54;;;;;;;10.38;3.10;;;;;;;13.27;75.92;102261.91;5072365;28;20413;-74
2023/05/02 08:16:19;;;;;;;12.25;3.65;;;;;;;13.15;77.57;102257.28;5053968;28;20099;-74
2023/05/02 08:18:45;;;;;;;8.93;3.17;;;;;;;13.17;76.72;102264.13;5053294;28;20047;-76
2023/05/02 08:21:11;;;;;;;14.77;3.88;;;;;;;13.28;76.22;102260.06;5071888;28;20024;-74
2023/05/02 08:23:36;;;;;;;11.25;3.13;;;;;;;13.45;76.39;102279.41;5053962;28;20032;-74
2023/05/02 08:26:03;;;;;;;9.38;2.83;;;;;;;13.57;75.41;102275.94;5069536;28;20055;-74
2023/05/02 08:28:29;;;;;;;6.45;3.00;;;;;;;13.75;75.19;102283.50;5071532;28;20048;-74
2023/05/02 08:30:55;;;;;;;13.07;3.30;;;;;;;13.83;73.34;102267.19;5052959;28;20070;-74
2023/05/02 08:33:20;;;;;;;10.57;3.10;;;;;;;14.11;74.14;102279.69;5071708;28;20369;-74
2023/05/02 08:35:45;;;;;;;7.10;2.80;;;;;;;14.44;71.68;102280.66;5071897;28;20025;-74
2023/05/02 08:38:10;;;;;;;12.15;2.70;;;;;;;14.90;69.81;102284.44;5070666;28;20048;-74
2023/05/02 08:40:37;;;;;;;8.60;2.75;;;;;;;15.19;67.25;102294.78;5071460;28;20024;-74
2023/05/02 08:43:06;;;;;;;8.43;2.70;;;;;;;15.34;66.63;102290.00;5052527;28;20512;-74
2023/05/02 08:45:39;;;;;;;6.75;2.75;;;;;;;15.40;66.47;102288.34;5053328;28;20037;-74
2023/05/02 08:48:07;;;;;;;15.00;3.17;;;;;;;15.63;64.83;102299.53;5053394;28;20024;-74
2023/05/02 08:50:36;;;;;;;7.82;3.00;;;;;;;16.05;65.35;102300.81;5052667;28;20036;-75
2023/05/02 08:53:04;;;;;;;7.55;3.13;;;;;;;16.70;62.51;102289.84;5071173;28;20481;-75
2023/05/02 08:58:51;;;;;;;9.90;3.00;;;;;;;18.42;54.18;102307.81;5071418;28;20118;-75
2023/05/02 09:01:19;;;;;;;9.33;3.07;;;;;;;18.83;54.13;102304.31;5053489;28;20461;-75
2023/05/02 09:03:46;;;;;;;5.53;2.63;;;;;;;20.48;51.24;102319.31;5052924;28;20306;-75
2023/05/02 09:06:14;;;;;;;9.93;3.67;;;;;;;22.99;41.34;102319.69;5053459;28;20036;-74
2023/05/02 09:08:40;;;;;;;10.43;3.47;;;;;;;24.98;37.64;102327.59;5052792;28;20399;-74
2023/05/02 09:11:07;;;;;;;7.95;2.83;;;;;;;23.87;36.14;102326.25;5071201;28;20480;-74
2023/05/02 09:13:38;;;;;;;10.40;3.30;;;;;;;22.19;39.00;102333.06;5073805;28;20469;-74
2023/05/02 09:16:08;;;;;;;10.82;4.00;;;;;;;21.04;42.02;102337.41;5062959;28;20124;-74
2023/05/02 09:18:39;;;;;;;8.25;3.00;;;;;;;19.64;44.11;102331.69;5056809;28;20036;-74
2023/05/02 09:21:10;;;;;;;7.30;4.00;;;;;;;18.49;48.04;102332.91;5056078;28;20044;-75
2023/05/02 09:23:38;;;;;;;6.47;2.50;;;;;;;17.79;48.21;102331.72;5056916;28;20028;-75
2023/05/02 09:26:14;;;;;;;6.32;2.72;;;;;;;17.37;50.14;102347.75;5074545;28;20029;-75
2023/05/02 09:28:42;;;;;;;5.72;2.50;;;;;;;16.88;51.16;102343.16;5074209;28;20045;-75
2023/05/02 09:31:09;;;;;;;7.47;2.83;;;;;;;16.67;52.34;102330.81;5056398;28;20028;-74
2023/05/02 09:33:36;;;;;;;7.75;2.80;;;;;;;16.75;52.50;102341.34;5073757;28;20495;-75
2023/05/02 09:36:01;;;;;;;7.82;2.78;;;;;;;16.74;51.72;102342.41;5074582;28;20503;-75
2023/05/02 09:38:26;;;;;;;6.65;2.70;;;;;;;16.80;52.19;102335.31;5056471;28;20028;-74
2023/05/02 09:44:17;;;;;;;8.15;3.30;;;;;;;18.73;48.91;102352.81;5074702;28;20059;-74
2023/05/02 09:46:44;;;;;;;10.15;3.10;;;;;;;19.26;46.94;102356.56;5055656;28;20044;-74
2023/05/02 09:49:10;;;;;;;6.80;3.30;;;;;;;19.02;45.89;102355.72;5074120;28;20036;-74
2023/05/02 09:51:35;;;;;;;7.97;2.92;;;;;;;18.46;46.69;102368.59;5055381;28;20044;-75
2023/05/02 09:54:00;;;;;;;9.13;3.30;;;;;;;18.15;49.08;102375.03;5056328;28;20461;-74
2023/05/02 09:56:26;;;;;;;9.00;3.70;;;;;;;18.18;49.42;102373.75;5056526;28;20033;-75
2023/05/02 09:59:10;;;;;;;10.40;3.00;;;;;;;19.94;46.91;102381.22;5055487;28;20301;-74
2023/05/02 10:01:35;;;;;;;9.48;3.88;;;;;;;22.02;40.43;102375.09;5074230;28;20758;-74
2023/05/02 10:04:03;;;;;;;14.25;3.92;;;;;;;22.43;38.58;102373.69;5055408;28;20075;-75
2023/05/02 10:06:29;;;;;;;10.25;3.60;;;;;;;22.63;37.90;102381.25;5073938;28;20059;-75
2023/05/02 10:08:54;;;;;;;7.72;3.83;;;;;;;21.71;38.75;102380.13;5074028;28;20493;-74
2023/05/02 10:11:20;;;;;;;7.43;3.67;;;;;;;20.88;40.03;102376.31;5072116;28;20408;-74
2023/05/02 10:13:46;;;;;;;10.65;3.35;;;;;;;20.34;43.18;102367.66;5073903;28;20021;-74
2023/05/02 10:16:12;;;;;;;10.95;3.60;;;;;;;19.78;45.23;102374.66;5073019;28;20040;-74
2023/05/02 10:18:41;;;;;;;8.60;3.80;;;;;;;18.93;46.20;102382.34;5073600;28;20072;-74
2023/05/02 10:21:10;;;;;;;10.68;3.10;;;;;;;18.33;47.93;102389.63;5073822;28;20028;-75
2023/05/02 10:23:40;;;;;;;4.88;3.10;;;;;;;17.86;48.18;102371.19;5072592;28;20055;-74
2023/05/02 10:26:05;;;;;;;10.23;3.83;;;;;;;17.53;49.20;102373.38;5073645;28;20064;-74
2023/05/02 10:28:31;;;;;;;7.25;2.95;;;;;;;17.27;51.05;102375.25;5055008;28;20688;-74
2023/05/02 10:30:59;;;;;;;9.60;3.20;;;;;;;17.36;50.35;102383.13;5073513;28;20480;-75
2023/05/02 10:33:26;;;;;;;5.85;3.15;;;;;;;17.79;48.43;102386.69;5055734;28;20418;-74
2023/05/02 10:35:51;;;;;;;6.72;3.22;;;;;;;18.21;45.37;102384.97;5072761;28;20043;-74
2023/05/02 10:38:20;;;;;;;8.52;3.22;;;;;;;18.72;46.45;102382.84;5055262;28;20024;-74
2023/05/02 10:41:00;;;;;;;4.78;3.00;;;;;;;19.10;44.42;102390.66;5072840;28;20033;-74
2023/05/02 10:46:48;;;;;;;7.63;2.83;;;;;;;19.91;43.87;102381.69;5073620;28;20095;-76
2023/05/02 10:49:14;;;;;;;8.43;3.35;;;;;;;19.67;41.40;102377.38;5047774;28;20127;-75
2023/05/02 10:51:41;;;;;;;11.13;3.20;;;;;;;19.40;42.61;102377.81;5073342;28;20158;-76
2023/05/02 10:54:23;;;;;;;7.93;3.13;;;;;;;19.26;42.61;102381.81;5072329;28;20054;-75
2023/05/02 11:00:20;;;;;;;7.32;3.00;;;;;;;19.22;42.09;102377.91;5073611;28;20059;-75
2023/05/02 11:06:08;;;;;;;6.22;3.33;;;;;;;19.27;42.03;102386.16;5073371;28;20090;-76
2023/05/02 11:08:33;;;;;;;5.95;2.83;;;;;;;19.35;42.42;102388.53;5054918;28;20028;-75
2023/05/02 11:11:42;;;;;;;6.57;3.85;;;;;;;19.14;43.96;102397.25;5073222;28;20056;-75
2023/05/02 11:18:00;;;;;;;24.83;4.15;;;;;;;17.76;45.88;102399.84;5072930;28;20047;-75
2023/05/02 11:20:25;;;;;;;11.25;3.97;;;;;;;17.63;45.61;102404.28;5054708;28;20032;-75
2023/05/02 11:22:51;;;;;;;8.20;3.97;;;;;;;18.64;45.51;102407.56;5054734;28;20032;-75
2023/05/02 11:25:35;;;;;;;8.50;3.90;;;;;;;19.54;42.46;102407.47;5072210;28;20049;-75
2023/05/02 11:28:01;;;;;;;7.45;3.72;;;;;;;20.23;40.94;102406.56;5072749;28;20432;-74
2023/05/02 11:33:58;;;;;;;7.15;3.85;;;;;;;19.88;40.41;102408.50;5072911;28;20094;-75
2023/05/02 11:36:28;;;;;;;6.55;3.35;;;;;;;19.57;41.26;102399.66;5052962;28;20044;-75
2023/05/02 11:38:53;;;;;;;5.95;3.40;;;;;;;20.03;43.17;102401.53;5072505;28;20028;-75
2023/05/02 11:44:57;;;;;;;8.30;3.58;;;;;;;20.12;40.76;102399.25;5072601;28;20699;-75
2023/05/02 11:47:25;;;;;;;8.02;3.42;;;;;;;19.60;39.82;102391.06;5054001;28;20032;-75
2023/05/02 11:49:50;;;;;;;7.03;3.38;;;;;;;19.07;41.20;102401.94;5071501;28;20044;-74
2023/05/02 11:52:16;;;;;;;6.68;2.95;;;;;;;19.43;42.26;102398.22;5070824;28;20575;-75
2023/05/02 11:54:41;;;;;;;7.43;3.70;;;;;;;19.77;37.09;102408.28;5071346;28;20110;-75
2023/05/02 11:57:06;;;;;;;7.97;3.00;;;;;;;19.56;38.60;102406.16;5072317;28;20024;-75
2023/05/02 11:59:49;;;;;;;6.30;3.10;;;;;;;19.74;40.80;102408.78;5072062;28;20028;-77
2023/05/02 12:02:15;;;;;;;11.05;3.65;;;;;;;19.74;39.06;102399.81;5053671;28;20045;-75
2023/05/02 12:04:43;;;;;;;5.70;3.05;;;;;;;19.49;39.73;102417.09;5054199;28;20028;-75
2023/05/02 12:07:09;;;;;;;6.90;3.28;;;;;;;19.30;41.02;102417.44;5071343;28;20044;-73
2023/05/02 12:09:34;;;;;;;6.70;3.10;;;;;;;19.72;39.45;102419.03;5054194;28;20119;-75
2023/05/02 12:12:01;;;;;;;5.60;3.40;;;;;;;19.70;37.97;102423.06;5072009;28;20039;-76
2023/05/02 12:14:28;;;;;;;6.15;3.50;;;;;;;19.37;40.70;102424.41;5071217;28;20047;-75
2023/05/02 12:16:54;;;;;;;7.05;3.58;;;;;;;18.80;40.03;102424.03;5072180;28;20484;-75
2023/05/02 12:19:20;;;;;;;6.93;3.60;;;;;;;19.12;39.66;102418.34;5071064;28;20033;-75
2023/05/02 12:21:46;;;;;;;7.50;3.20;;;;;;;19.83;39.22;102422.78;5071612;28;20032;-75
2023/05/02 12:24:14;;;;;;;6.57;3.53;;;;;;;20.37;37.94;102426.13;5054020;28;20420;-75
2023/05/02 12:26:39;;;;;;;7.53;3.20;;;;;;;20.93;36.57;102428.06;5071489;28;20514;-74
2023/05/02 12:29:06;;;;;;;6.90;2.97;;;;;;;21.60;34.33;102428.13;5053909;28;20032;-75
2023/05/02 12:34:53;;;;;;;7.55;3.20;;;;;;;23.09;32.61;102448.84;5072187;28;20051;-75
2023/05/02 12:37:23;;;;;;;4.70;3.08;;;;;;;21.16;34.52;102453.50;5071931;28;20025;-74
2023/05/02 12:39:49;;;;;;;5.28;2.75;;;;;;;21.00;35.28;102463.28;5053196;28;20563;-73
2023/05/02 12:42:16;;;;;;;6.95;3.17;;;;;;;21.05;35.33;102460.66;5071764;28;20024;-74
2023/05/02 12:44:43;;;;;;;7.40;3.20;;;;;;;20.29;36.23;102448.25;5070822;28;20123;-75
2023/05/02 12:47:13;;;;;;;4.97;3.25;;;;;;;19.67;37.04;102450.66;5073668;28;20041;-75
2023/05/02 12:49:55;;;;;;;5.63;3.30;;;;;;;19.05;38.69;102458.28;5057332;28;20035;-75